createdAt,value
2023-01-27T00:00:30.412Z,101967.14
2023-01-27T00:01:53.244Z,101966.46
2023-01-27T00:02:56.182Z,101962.77
2023-01-27T00:04:00.191Z,101966.02
2023-01-27T00:05:03.800Z,101964.33
2023-01-27T00:06:12.133Z,101963.90
2023-01-27T00:07:15.375Z,101964.43
2023-01-27T00:08:20.070Z,101968.37
2023-01-27T00:09:23.552Z,101967.66
2023-01-27T00:10:27.316Z,101968.91
2023-01-27T00:11:48.763Z,101966.20
2023-01-27T00:13:10.609Z,101964.36
2023-01-27T00:14:13.602Z,101963.05
2023-01-27T00:15:17.102Z,101963.48
2023-01-27T00:16:20.258Z,101960.88
2023-01-27T00:17:23.254Z,101963.77
2023-01-27T00:18:26.467Z,101966.41
2023-01-27T00:19:29.297Z,101964.89
2023-01-27T00:20:51.325Z,101968.51
2023-01-27T00:22:15.195Z,101972.73
2023-01-27T00:23:43.800Z,101968.45
2023-01-27T00:24:46.796Z,101973.80
2023-01-27T00:25:51.020Z,101976.48
2023-01-27T00:26:53.948Z,101975.64
2023-01-27T00:27:56.894Z,101975.48
2023-01-27T00:29:01.868Z,101977.36
2023-01-27T00:30:08.303Z,101979.18
2023-01-27T00:31:32.671Z,101974.12
2023-01-27T00:32:54.296Z,101979.59
2023-01-27T00:34:09.934Z,101978.58
2023-01-27T00:35:16.771Z,101979.85
2023-01-27T00:36:20.156Z,101980.29
2023-01-27T00:37:23.371Z,101977.16
2023-01-27T00:38:31.569Z,101978.33
2023-01-27T00:39:34.774Z,101980.39
2023-01-27T00:40:39.544Z,101981.88
2023-01-27T00:41:42.512Z,101983.39
2023-01-27T00:42:45.660Z,101982.64
2023-01-27T00:43:55.198Z,101983.95
2023-01-27T00:45:18.823Z,101983.41
2023-01-27T00:46:23.943Z,101984.27
2023-01-27T00:47:27.102Z,101985.67
2023-01-27T00:48:29.953Z,101984.49
2023-01-27T00:49:33.495Z,101987.83
2023-01-27T00:50:38.999Z,101984.37
2023-01-27T00:51:44.873Z,101983.64
2023-01-27T00:52:48.023Z,101984.46
2023-01-27T00:53:52.207Z,101982.80
2023-01-27T00:54:55.029Z,101982.66
2023-01-27T00:55:58.354Z,101984.70
2023-01-27T00:57:01.348Z,101986.92
2023-01-27T00:58:04.440Z,101982.73
2023-01-27T00:59:07.425Z,101984.52
2023-01-27T01:00:12.560Z,101986.75
2023-01-27T01:01:16.990Z,101987.77
2023-01-27T01:02:19.903Z,101988.81
2023-01-27T01:03:24.686Z,101988.83
2023-01-27T01:04:27.806Z,101989.02
2023-01-27T01:05:30.735Z,101990.55
2023-01-27T01:06:34.589Z,101989.64
2023-01-27T01:07:40.002Z,101991.64
2023-01-27T01:08:44.819Z,101989.89
2023-01-27T01:09:47.974Z,101992.11
2023-01-27T01:10:51.561Z,101992.18
2023-01-27T01:11:54.645Z,101990.80
2023-01-27T01:12:57.885Z,101997.66
2023-01-27T01:14:00.794Z,101995.41
2023-01-27T01:15:03.950Z,101995.19
2023-01-27T01:16:10.529Z,101996.50
2023-01-27T01:17:14.199Z,102000.07
2023-01-27T01:18:17.256Z,101997.23
2023-01-27T01:19:20.082Z,101997.30
2023-01-27T01:20:24.219Z,101997.19
2023-01-27T01:21:27.092Z,102000.45
2023-01-27T01:22:31.159Z,101999.83
2023-01-27T01:23:37.962Z,102001.41
2023-01-27T01:24:40.820Z,102004.80
2023-01-27T01:25:43.650Z,102007.35
2023-01-27T01:26:46.706Z,102005.73
2023-01-27T01:27:50.268Z,102008.69
2023-01-27T01:28:53.229Z,102009.02
2023-01-27T01:29:56.216Z,102007.06
2023-01-27T01:31:07.254Z,102008.58
2023-01-27T01:32:11.116Z,102009.98
2023-01-27T01:33:14.366Z,102010.10
2023-01-27T01:34:17.603Z,102011.98
2023-01-27T01:35:21.634Z,102007.48
2023-01-27T01:36:25.532Z,102009.84
2023-01-27T01:37:28.716Z,102008.05
2023-01-27T01:38:31.893Z,102006.46
2023-01-27T01:39:34.961Z,102004.79
2023-01-27T01:40:41.779Z,102008.86
2023-01-27T01:41:45.577Z,102008.87
2023-01-27T01:42:57.254Z,102010.40
2023-01-27T01:44:25.146Z,102011.55
2023-01-27T01:45:31.384Z,102012.90
2023-01-27T01:46:34.253Z,102009.09
2023-01-27T01:47:38.421Z,102014.56
2023-01-27T01:48:47.789Z,102011.01
2023-01-27T01:49:51.149Z,102011.13
2023-01-27T01:51:01.932Z,102011.02
2023-01-27T01:52:13.832Z,102009.26
2023-01-27T01:53:21.765Z,102010.88
2023-01-27T01:54:33.639Z,102008.64
2023-01-27T01:55:40.173Z,102009.13
2023-01-27T01:57:05.374Z,102009.80
2023-01-27T01:58:13.203Z,102011.50
2023-01-27T01:59:30.875Z,102012.41
2023-01-27T02:00:35.045Z,102011.25
2023-01-27T02:01:41.169Z,102014.05
2023-01-27T02:02:46.105Z,102011.10
2023-01-27T02:03:54.560Z,102011.38
2023-01-27T02:05:11.799Z,102012.44
2023-01-27T02:06:17.614Z,102013.30
2023-01-27T02:07:46.012Z,102013.75
2023-01-27T02:08:52.118Z,102013.73
2023-01-27T02:10:02.384Z,102016.18
2023-01-27T02:11:08.760Z,102018.37
2023-01-27T02:12:13.585Z,102020.92
2023-01-27T02:13:18.070Z,102021.78
2023-01-27T02:14:21.073Z,102017.83
2023-01-27T02:15:26.988Z,102019.63
2023-01-27T02:16:30.468Z,102017.00
2023-01-27T02:17:35.975Z,102018.99
2023-01-27T02:18:41.896Z,102017.73
2023-01-27T02:20:26.846Z,102018.64
2023-01-27T02:21:31.107Z,102023.08
2023-01-27T02:22:54.479Z,102025.64
2023-01-27T02:24:10.953Z,102028.78
2023-01-27T02:25:28.780Z,102031.77
2023-01-27T02:26:54.655Z,102029.03
2023-01-27T02:27:57.551Z,102030.09
2023-01-27T02:29:08.098Z,102029.79
2023-01-27T02:30:13.335Z,102032.30
